createdAt,value
2019-03-03T00:00:30.371Z,28.30
2019-03-03T00:02:59.119Z,30.67
2019-03-03T00:05:28.706Z,28.10
2019-03-03T00:07:57.538Z,29.57
2019-03-03T00:10:26.203Z,29.53
2019-03-03T00:12:54.953Z,29.33
2019-03-03T00:15:23.535Z,30.43
2019-03-03T00:17:52.277Z,31.33
2019-03-03T00:20:20.907Z,31.33
2019-03-03T00:22:49.569Z,33.20
2019-03-03T00:25:18.277Z,30.83
2019-03-03T00:27:46.847Z,29.90
2019-03-03T00:30:19.376Z,32.17
2019-03-03T00:32:48.061Z,30.07
2019-03-03T00:35:17.096Z,27.60
2019-03-03T00:38:03.437Z,33.27
2019-03-03T00:40:39.423Z,30.67
2019-03-03T00:43:18.711Z,29.00
2019-03-03T00:45:58.157Z,31.93
2019-03-03T00:48:31.397Z,31.33
2019-03-03T00:51:10.952Z,30.43
2019-03-03T00:53:47.272Z,28.23
2019-03-03T00:56:32.538Z,30.67
2019-03-03T00:59:05.596Z,68.10
2019-03-03T01:01:35.815Z,37.70
2019-03-03T01:04:06.101Z,30.97
2019-03-03T01:06:39.571Z,28.47
2019-03-03T01:09:26.959Z,26.10
2019-03-03T01:11:58.352Z,27.23
2019-03-03T01:14:31.351Z,27.33
2019-03-03T01:17:01.483Z,29.83
2019-03-03T01:19:31.793Z,25.70
2019-03-03T01:22:18.192Z,25.77
2019-03-03T01:24:51.184Z,31.07
2019-03-03T01:27:19.745Z,32.47
2019-03-03T01:29:48.390Z,29.27
2019-03-03T01:32:17.102Z,29.23
2019-03-03T01:34:45.728Z,42.50
2019-03-03T01:37:14.297Z,28.07
2019-03-03T01:39:42.822Z,30.63
2019-03-03T01:42:11.446Z,26.57
2019-03-03T01:44:40.074Z,29.00
2019-03-03T01:47:08.811Z,30.93
2019-03-03T01:49:37.492Z,31.50
2019-03-03T01:52:06.293Z,25.63
2019-03-03T01:54:34.888Z,25.53
2019-03-03T01:57:03.533Z,30.33
2019-03-03T01:59:32.093Z,28.73
2019-03-03T02:02:00.779Z,131.10
2019-03-03T02:04:29.333Z,37.17
2019-03-03T02:06:58.030Z,30.83
2019-03-03T02:09:26.794Z,28.10
2019-03-03T02:11:55.416Z,31.43
2019-03-03T02:14:23.976Z,30.80
2019-03-03T02:16:52.660Z,29.93
2019-03-03T02:19:21.289Z,34.70
2019-03-03T02:21:49.936Z,34.60
2019-03-03T02:24:18.792Z,30.47
2019-03-03T02:26:47.441Z,31.60
2019-03-03T02:29:16.145Z,29.17
2019-03-03T02:31:44.816Z,37.57
2019-03-03T02:34:13.380Z,47.47
2019-03-03T02:36:42.012Z,32.10
2019-03-03T02:39:13.343Z,31.20
2019-03-03T02:41:42.061Z,30.63
2019-03-03T02:44:10.639Z,30.13
2019-03-03T02:46:39.300Z,34.30
2019-03-03T02:49:08.004Z,32.73
2019-03-03T02:51:36.688Z,37.83
2019-03-03T02:54:05.658Z,40.43
2019-03-03T02:56:34.285Z,40.53
2019-03-03T02:59:02.826Z,40.10
2019-03-03T03:01:35.778Z,47.37
2019-03-03T03:04:04.494Z,41.87
2019-03-03T03:06:37.277Z,43.77
2019-03-03T03:09:14.822Z,42.43
2019-03-03T03:11:54.089Z,37.53
2019-03-03T03:14:42.397Z,41.03
2019-03-03T03:17:15.508Z,39.50
2019-03-03T03:19:48.750Z,38.70
2019-03-03T03:22:19.001Z,35.47
2019-03-03T03:24:49.191Z,42.00
2019-03-03T03:27:25.501Z,43.83
2019-03-03T03:30:04.672Z,42.07
2019-03-03T03:32:53.154Z,45.20
2019-03-03T03:35:39.771Z,45.43
2019-03-03T03:38:12.912Z,45.23
2019-03-03T03:40:43.180Z,43.23
2019-03-03T03:43:19.462Z,42.00
2019-03-03T03:45:55.735Z,45.37
2019-03-03T03:48:42.080Z,44.63
2019-03-03T03:51:15.022Z,42.63
2019-03-03T03:53:45.837Z,41.13
2019-03-03T03:56:22.190Z,40.13
2019-03-03T03:58:52.485Z,45.80
2019-03-03T04:01:38.750Z,40.93
2019-03-03T04:04:17.920Z,41.70
2019-03-03T04:07:03.264Z,36.70
2019-03-03T04:09:42.214Z,41.27
2019-03-03T04:12:28.552Z,38.87
2019-03-03T04:15:11.118Z,41.93
2019-03-03T04:17:53.206Z,40.67
2019-03-03T04:20:23.458Z,42.47
2019-03-03T04:22:53.651Z,38.83
2019-03-03T04:25:26.657Z,41.20
2019-03-03T04:27:56.986Z,38.63
2019-03-03T04:30:28.075Z,42.13
2019-03-03T04:33:00.859Z,42.50
2019-03-03T04:35:33.695Z,34.97
2019-03-03T04:38:06.537Z,38.77
2019-03-03T04:40:39.638Z,40.93
2019-03-03T04:43:12.595Z,38.60
2019-03-03T04:45:48.958Z,33.30
2019-03-03T04:48:24.996Z,39.87
2019-03-03T04:51:04.271Z,40.63
2019-03-03T04:53:34.406Z,37.13
2019-03-03T04:56:22.844Z,35.80
2019-03-03T04:58:55.871Z,40.87
2019-03-03T05:01:34.733Z,38.30
2019-03-03T05:04:21.277Z,41.60
2019-03-03T05:06:54.147Z,38.97
2019-03-03T05:09:42.506Z,38.20
2019-03-03T05:12:29.823Z,41.60
2019-03-03T05:15:08.905Z,39.57
2019-03-03T05:17:44.649Z,33.53
2019-03-03T05:20:15.155Z,37.80
2019-03-03T05:22:43.643Z,43.53
2019-03-03T05:25:12.300Z,42.90
2019-03-03T05:27:40.938Z,37.63
2019-03-03T05:30:13.995Z,37.93
2019-03-03T05:32:42.651Z,44.50
2019-03-03T05:35:11.572Z,43.67
2019-03-03T05:37:40.193Z,40.13
2019-03-03T05:40:09.150Z,43.80
2019-03-03T05:42:37.843Z,42.33
2019-03-03T05:45:07.181Z,43.87
2019-03-03T05:47:35.861Z,44.53
2019-03-03T05:50:06.044Z,45.30
2019-03-03T05:52:34.678Z,46.67
2019-03-03T05:55:03.346Z,47.23
2019-03-03T05:57:31.843Z,47.57
2019-03-03T06:00:00.354Z,45.80
2019-03-03T06:02:29.008Z,48.33
2019-03-03T06:04:57.565Z,47.90
2019-03-03T06:07:26.208Z,49.53
2019-03-03T06:09:54.806Z,54.17
2019-03-03T06:12:23.438Z,51.60
2019-03-03T06:14:51.902Z,53.40
2019-03-03T06:17:20.490Z,50.83
2019-03-03T06:19:49.062Z,53.40
2019-03-03T06:22:17.902Z,55.10
2019-03-03T06:24:46.490Z,46.30
2019-03-03T06:27:15.088Z,52.70
2019-03-03T06:29:43.577Z,53.50
2019-03-03T06:32:12.181Z,55.87
2019-03-03T06:34:40.832Z,47.20
2019-03-03T06:37:09.495Z,50.40
2019-03-03T06:39:38.151Z,57.13
2019-03-03T06:42:06.878Z,59.97
2019-03-03T06:44:35.444Z,60.23
2019-03-03T06:47:04.105Z,51.90
2019-03-03T06:49:32.732Z,56.10
2019-03-03T06:52:01.294Z,49.13
2019-03-03T06:54:29.876Z,43.37
2019-03-03T06:56:58.416Z,47.63
2019-03-03T06:59:26.907Z,54.47
2019-03-03T07:01:55.631Z,49.20
2019-03-03T07:04:24.269Z,50.53
2019-03-03T07:06:52.753Z,48.47
2019-03-03T07:09:21.357Z,45.77
2019-03-03T07:11:49.981Z,45.60
2019-03-03T07:14:18.453Z,45.57
2019-03-03T07:16:47.062Z,44.27
2019-03-03T07:19:15.731Z,42.80
2019-03-03T07:21:44.343Z,42.80
2019-03-03T07:24:13.009Z,45.10
2019-03-03T07:26:41.490Z,45.07
2019-03-03T07:29:10.045Z,45.17
2019-03-03T07:31:38.636Z,50.37
2019-03-03T07:34:07.203Z,49.03
2019-03-03T07:36:35.785Z,50.33
2019-03-03T07:39:07.376Z,45.83
2019-03-03T07:41:36.324Z,45.30
2019-03-03T07:44:04.934Z,41.87
2019-03-03T07:46:33.526Z,44.33
2019-03-03T07:49:02.476Z,45.17
2019-03-03T07:51:31.031Z,50.10
2019-03-03T07:53:59.647Z,40.57
2019-03-03T07:56:28.283Z,47.23
2019-03-03T07:58:57.182Z,49.23
2019-03-03T08:01:25.712Z,43.00
2019-03-03T08:03:54.349Z,43.93
2019-03-03T08:06:22.940Z,47.83
2019-03-03T08:08:51.626Z,46.57
2019-03-03T08:11:20.319Z,55.63
2019-03-03T08:13:49.065Z,48.70
2019-03-03T08:16:17.716Z,49.93
2019-03-03T08:18:46.218Z,49.30
2019-03-03T08:21:14.780Z,46.37
2019-03-03T08:23:43.360Z,45.20
2019-03-03T08:26:12.005Z,45.40
2019-03-03T08:28:40.649Z,50.10
2019-03-03T08:31:09.173Z,48.40
2019-03-03T08:33:37.732Z,38.63
2019-03-03T08:36:06.320Z,42.57
2019-03-03T08:38:34.927Z,42.10
2019-03-03T08:41:03.478Z,41.07
2019-03-03T08:43:33.680Z,40.97
2019-03-03T08:46:12.748Z,39.17
2019-03-03T08:48:54.780Z,38.33
2019-03-03T08:51:28.058Z,36.07
2019-03-03T08:54:04.029Z,35.70
2019-03-03T08:56:43.425Z,35.07
2019-03-03T08:59:13.612Z,33.57
2019-03-03T09:01:46.613Z,58.40
2019-03-03T09:04:35.415Z,37.10
2019-03-03T09:07:08.425Z,35.60
2019-03-03T09:09:54.879Z,35.47
2019-03-03T09:12:25.079Z,35.40
2019-03-03T09:14:55.343Z,38.70
2019-03-03T09:17:28.474Z,55.87
2019-03-03T09:20:01.486Z,35.83
2019-03-03T09:22:31.666Z,38.77
2019-03-03T09:25:11.042Z,44.50
2019-03-03T09:27:59.710Z,40.17
2019-03-03T09:30:32.587Z,35.37
2019-03-03T09:33:02.851Z,33.07
2019-03-03T09:35:33.112Z,33.73
2019-03-03T09:38:18.520Z,32.60
2019-03-03T09:40:48.736Z,33.73
2019-03-03T09:43:35.229Z,33.43
2019-03-03T09:46:05.521Z,29.63
2019-03-03T09:48:52.042Z,35.00
2019-03-03T09:51:25.118Z,35.53
2019-03-03T09:53:58.256Z,32.43
2019-03-03T09:56:28.558Z,31.93
2019-03-03T09:59:01.813Z,33.70
2019-03-03T10:01:48.598Z,35.67
2019-03-03T10:04:36.947Z,36.37
2019-03-03T10:07:07.277Z,34.83
2019-03-03T10:09:51.441Z,27.93
2019-03-03T10:12:27.545Z,29.07
2019-03-03T10:15:14.088Z,28.53
2019-03-03T10:17:50.078Z,27.53
2019-03-03T10:20:36.628Z,29.27
2019-03-03T10:23:09.875Z,29.63
2019-03-03T10:25:52.427Z,29.67
2019-03-03T10:28:38.011Z,32.13
2019-03-03T10:31:08.283Z,31.23
2019-03-03T10:33:38.645Z,31.30
2019-03-03T10:36:11.499Z,30.63
2019-03-03T10:38:53.826Z,32.07
2019-03-03T10:41:27.776Z,31.13
2019-03-03T10:44:15.814Z,35.50
2019-03-03T10:47:02.025Z,34.77
2019-03-03T10:49:38.137Z,37.20
2019-03-03T10:52:12.274Z,37.70
2019-03-03T10:54:42.594Z,39.47
2019-03-03T10:57:30.417Z,38.33
2019-03-03T11:00:01.030Z,37.47
2019-03-03T11:02:37.158Z,35.97
2019-03-03T11:05:19.701Z,35.33
2019-03-03T11:07:50.230Z,35.43
2019-03-03T11:10:20.546Z,36.90
2019-03-03T11:12:50.792Z,38.77
2019-03-03T11:15:37.654Z,37.67
2019-03-03T11:18:14.142Z,42.90
2019-03-03T11:21:00.731Z,43.60
2019-03-03T11:23:31.358Z,45.37
2019-03-03T11:26:20.813Z,38.33
2019-03-03T11:28:53.881Z,37.30
2019-03-03T11:31:24.160Z,34.47
2019-03-03T11:34:09.628Z,34.20
2019-03-03T11:36:42.702Z,30.97
2019-03-03T11:39:16.299Z,36.90
2019-03-03T11:41:55.919Z,39.13
2019-03-03T11:44:26.381Z,39.93
2019-03-03T11:46:59.440Z,41.63
2019-03-03T11:49:32.444Z,46.50
2019-03-03T11:52:05.336Z,37.10
2019-03-03T11:54:35.869Z,32.83
2019-03-03T11:57:11.894Z,29.57
2019-03-03T11:59:45.019Z,35.33
2019-03-03T12:02:15.313Z,38.13
2019-03-03T12:05:01.863Z,39.10
2019-03-03T12:07:44.634Z,36.30
2019-03-03T12:10:31.306Z,35.97
2019-03-03T12:13:17.612Z,35.67
2019-03-03T12:16:04.179Z,40.80
2019-03-03T12:18:40.454Z,32.13
2019-03-03T12:21:10.773Z,36.13
2019-03-03T12:23:50.114Z,33.07
2019-03-03T12:26:23.176Z,35.13
2019-03-03T12:28:59.905Z,35.27
2019-03-03T12:31:39.481Z,37.83
2019-03-03T12:34:21.864Z,32.17
2019-03-03T12:36:54.123Z,30.60
2019-03-03T12:39:40.314Z,33.53
2019-03-03T12:42:10.622Z,36.43
2019-03-03T12:44:46.418Z,35.47
2019-03-03T12:47:16.740Z,38.47
2019-03-03T12:49:53.129Z,32.67
2019-03-03T12:52:26.552Z,35.37
2019-03-03T12:54:56.677Z,31.03
2019-03-03T12:57:45.223Z,34.13
2019-03-03T13:00:31.902Z,31.73
2019-03-03T13:03:02.194Z,32.47
2019-03-03T13:05:32.477Z,31.47
2019-03-03T13:08:02.780Z,31.43
2019-03-03T13:10:42.003Z,32.17
2019-03-03T13:13:12.445Z,29.00
2019-03-03T13:15:59.141Z,28.67
2019-03-03T13:18:29.478Z,32.17
2019-03-03T13:21:16.225Z,29.40
2019-03-03T13:23:52.572Z,25.67
2019-03-03T13:26:22.926Z,23.73
2019-03-03T13:29:02.214Z,20.70
2019-03-03T13:31:48.700Z,21.20
2019-03-03T13:34:28.061Z,23.63
2019-03-03T13:37:00.923Z,24.83
2019-03-03T13:39:34.654Z,20.60
2019-03-03T13:42:21.282Z,22.23
2019-03-03T13:44:49.929Z,18.60
2019-03-03T13:47:18.618Z,25.53
2019-03-03T13:49:47.489Z,24.63
2019-03-03T13:52:16.335Z,22.40
2019-03-03T13:54:45.072Z,20.13
2019-03-03T13:57:13.828Z,19.83
2019-03-03T13:59:42.471Z,22.13
2019-03-03T14:02:11.302Z,25.50
2019-03-03T14:04:40.218Z,22.27
2019-03-03T14:07:09.228Z,26.93
2019-03-03T14:09:37.996Z,23.57
2019-03-03T14:12:06.819Z,29.23
2019-03-03T14:14:35.589Z,20.97
2019-03-03T14:17:04.493Z,18.83
2019-03-03T14:19:33.159Z,16.83
2019-03-03T14:22:01.807Z,20.00
2019-03-03T14:24:30.387Z,19.70
2019-03-03T14:26:59.682Z,19.97
2019-03-03T14:29:28.299Z,21.93
2019-03-03T14:31:56.993Z,20.43
2019-03-03T14:34:25.734Z,20.83
2019-03-03T14:36:54.378Z,18.83
2019-03-03T14:39:23.471Z,19.10
2019-03-03T14:41:52.164Z,23.70
2019-03-03T14:44:20.874Z,21.37
2019-03-03T14:46:49.514Z,21.77
2019-03-03T14:49:18.384Z,21.17
2019-03-03T14:51:47.094Z,20.37
2019-03-03T14:54:15.738Z,18.47
2019-03-03T14:56:44.419Z,16.70
2019-03-03T14:59:13.111Z,15.73
2019-03-03T15:01:41.764Z,15.07
2019-03-03T15:04:10.359Z,21.63
2019-03-03T15:06:39.002Z,20.13
2019-03-03T15:09:09.413Z,17.57
2019-03-03T15:11:38.074Z,21.20
2019-03-03T15:14:06.810Z,25.70
2019-03-03T15:16:35.911Z,20.57
2019-03-03T15:19:04.628Z,22.90
2019-03-03T15:21:33.296Z,19.37
2019-03-03T15:24:03.664Z,17.43
2019-03-03T15:26:32.510Z,16.77
2019-03-03T15:29:01.069Z,18.30
2019-03-03T15:31:37.450Z,16.10
2019-03-03T15:34:00.464Z,22.23
2019-03-03T15:36:29.373Z,22.57
2019-03-03T15:38:58.087Z,24.33
2019-03-03T15:41:26.982Z,19.80
2019-03-03T15:43:58.632Z,22.10
2019-03-03T15:46:27.335Z,17.50
2019-03-03T15:48:56.094Z,19.43
2019-03-03T15:51:24.845Z,47.30
2019-03-03T15:53:53.506Z,59.87
2019-03-03T15:56:22.202Z,54.70
2019-03-03T15:58:55.556Z,51.70
2019-03-03T16:01:22.860Z,56.43
2019-03-03T16:03:51.638Z,53.47
2019-03-03T16:06:23.403Z,57.40
2019-03-03T16:08:51.968Z,60.53
2019-03-03T16:11:20.689Z,63.30
2019-03-03T16:13:50.803Z,70.30
2019-03-03T16:16:19.469Z,73.27
2019-03-03T16:18:49.339Z,81.77
2019-03-03T16:21:18.222Z,108.47
2019-03-03T16:23:46.884Z,309.50
2019-03-03T16:26:15.700Z,232.67
2019-03-03T16:28:44.334Z,125.47
2019-03-03T16:31:12.989Z,300.33
2019-03-03T16:33:41.612Z,691.87
2019-03-03T16:36:10.291Z,554.93
2019-03-03T16:38:38.943Z,236.60
2019-03-03T16:41:07.642Z,159.53
2019-03-03T16:43:36.226Z,408.53
2019-03-03T16:46:05.253Z,776.87
2019-03-03T16:48:33.891Z,345.47
2019-03-03T16:51:03.454Z,404.20
2019-03-03T16:53:32.110Z,112.20
2019-03-03T16:56:00.788Z,84.13
2019-03-03T16:58:29.342Z,67.43
2019-03-03T17:00:58.188Z,63.60
2019-03-03T17:03:26.943Z,63.90
2019-03-03T17:05:55.650Z,64.43
2019-03-03T17:08:24.291Z,63.10
2019-03-03T17:10:53.142Z,61.10
2019-03-03T17:13:21.868Z,65.90
2019-03-03T17:15:50.492Z,64.20
2019-03-03T17:18:19.168Z,73.00
2019-03-03T17:20:50.436Z,71.17
2019-03-03T17:23:19.133Z,76.87
2019-03-03T17:25:47.916Z,78.37
2019-03-03T17:28:16.567Z,70.63
2019-03-03T17:30:45.296Z,77.27
2019-03-03T17:33:13.972Z,81.23
2019-03-03T17:35:42.626Z,77.87
2019-03-03T17:38:11.286Z,83.93
2019-03-03T17:40:40.778Z,98.63
2019-03-03T17:43:09.438Z,81.27
2019-03-03T17:45:38.124Z,86.23
2019-03-03T17:48:06.792Z,81.30
2019-03-03T17:50:35.485Z,84.00
2019-03-03T17:53:04.153Z,97.43
2019-03-03T17:55:32.838Z,88.93
2019-03-03T17:58:01.512Z,83.63
2019-03-03T18:00:34.376Z,82.47
2019-03-03T18:03:03.357Z,79.97
2019-03-03T18:05:32.124Z,91.83
2019-03-03T18:08:02.182Z,81.20
2019-03-03T18:10:30.844Z,82.93
2019-03-03T18:12:59.562Z,89.43
2019-03-03T18:15:28.382Z,93.20
2019-03-03T18:17:57.107Z,82.63
2019-03-03T18:20:25.796Z,85.47
2019-03-03T18:22:54.443Z,75.37
2019-03-03T18:25:23.232Z,74.83
2019-03-03T18:27:51.875Z,72.50
2019-03-03T18:30:28.916Z,69.60
2019-03-03T18:32:58.831Z,84.03
2019-03-03T18:35:27.719Z,78.20
2019-03-03T18:37:56.538Z,81.67
2019-03-03T18:40:26.390Z,88.53
2019-03-03T18:42:55.116Z,98.07
2019-03-03T18:45:24.498Z,86.57
2019-03-03T18:47:53.242Z,73.33
2019-03-03T18:50:27.778Z,73.90
2019-03-03T18:52:56.822Z,75.20
2019-03-03T18:55:25.601Z,72.30
2019-03-03T18:57:54.243Z,72.83
2019-03-03T19:00:30.683Z,70.07
2019-03-03T19:02:59.961Z,79.60
2019-03-03T19:05:29.553Z,80.67
2019-03-03T19:07:58.277Z,77.30
2019-03-03T19:10:34.710Z,73.87
2019-03-03T19:13:04.889Z,72.60
2019-03-03T19:15:33.703Z,70.97
2019-03-03T19:18:02.555Z,76.13
2019-03-03T19:20:31.738Z,88.97
2019-03-03T19:23:00.460Z,96.00
2019-03-03T19:25:29.131Z,111.07
2019-03-03T19:27:57.797Z,109.33
2019-03-03T19:30:30.212Z,106.83
2019-03-03T19:33:10.790Z,115.20
2019-03-03T19:35:40.218Z,107.37
2019-03-03T19:38:09.212Z,109.00
2019-03-03T19:40:37.907Z,87.43
2019-03-03T19:43:06.540Z,110.13
2019-03-03T19:45:43.558Z,82.60
2019-03-03T19:48:12.223Z,76.17
2019-03-03T19:50:40.940Z,107.87
2019-03-03T19:53:09.833Z,72.67
2019-03-03T19:55:38.745Z,71.40
2019-03-03T19:58:07.937Z,71.33
2019-03-03T20:00:41.197Z,66.23
2019-03-03T20:03:10.149Z,58.93
2019-03-03T20:05:39.642Z,62.50
2019-03-03T20:08:08.751Z,73.90
2019-03-03T20:10:38.059Z,68.93
2019-03-03T20:13:08.884Z,63.90
2019-03-03T20:15:38.261Z,65.63
2019-03-03T20:18:09.601Z,69.57
2019-03-03T20:20:39.199Z,61.27
2019-03-03T20:23:08.382Z,69.00
2019-03-03T20:25:36.992Z,65.23
2019-03-03T20:28:06.032Z,64.00
2019-03-03T20:30:35.183Z,59.67
2019-03-03T20:33:04.267Z,57.47
2019-03-03T20:35:32.926Z,57.23
2019-03-03T20:38:01.733Z,58.73
2019-03-03T20:40:30.672Z,54.70
2019-03-03T20:42:59.533Z,57.70
2019-03-03T20:45:29.516Z,49.50
2019-03-03T20:47:58.420Z,45.80
2019-03-03T20:50:27.162Z,47.20
2019-03-03T20:52:55.860Z,38.47
2019-03-03T20:55:25.788Z,38.80
2019-03-03T20:57:54.717Z,38.67
2019-03-03T21:00:36.189Z,37.33
2019-03-03T21:03:07.564Z,35.50
2019-03-03T21:05:36.189Z,34.80
2019-03-03T21:08:05.148Z,33.37
2019-03-03T21:10:35.396Z,35.17
2019-03-03T21:13:04.237Z,34.60
2019-03-03T21:15:32.919Z,34.03
2019-03-03T21:18:01.581Z,34.60
2019-03-03T21:20:30.258Z,34.37
2019-03-03T21:22:58.839Z,33.43
2019-03-03T21:25:27.588Z,31.57
2019-03-03T21:27:56.222Z,33.00
2019-03-03T21:30:26.129Z,34.90
2019-03-03T21:32:55.391Z,30.80
2019-03-03T21:35:24.161Z,33.03
2019-03-03T21:37:52.855Z,37.23
2019-03-03T21:40:27.767Z,33.50
2019-03-03T21:42:56.394Z,34.23
2019-03-03T21:45:27.332Z,31.70
2019-03-03T21:47:56.644Z,30.40
2019-03-03T21:50:30.346Z,28.10
2019-03-03T21:52:59.622Z,28.53
2019-03-03T21:55:28.530Z,29.83
2019-03-03T21:57:57.392Z,28.33
2019-03-03T22:00:34.849Z,27.10
2019-03-03T22:03:04.420Z,29.07
2019-03-03T22:05:33.223Z,25.27
2019-03-03T22:08:01.984Z,25.77
2019-03-03T22:10:31.684Z,28.37
2019-03-03T22:13:01.482Z,28.50
2019-03-03T22:15:30.370Z,26.30
2019-03-03T22:17:59.314Z,25.53
2019-03-03T22:20:28.183Z,26.20
2019-03-03T22:22:57.007Z,30.73
2019-03-03T22:25:25.636Z,31.10
2019-03-03T22:27:54.236Z,26.07
2019-03-03T22:30:23.212Z,26.67
2019-03-03T22:32:52.012Z,28.27
2019-03-03T22:35:20.776Z,30.00
2019-03-03T22:37:49.457Z,26.10
2019-03-03T22:40:23.051Z,25.63
2019-03-03T22:42:52.152Z,26.10
2019-03-03T22:45:21.914Z,26.83
2019-03-03T22:47:50.621Z,26.23
2019-03-03T22:50:20.550Z,27.20
2019-03-03T22:52:49.360Z,28.13
2019-03-03T22:55:19.209Z,28.63
2019-03-03T22:57:47.873Z,27.33
2019-03-03T23:00:55.002Z,27.57
2019-03-03T23:03:26.698Z,22.57
2019-03-03T23:06:22.439Z,24.80
2019-03-03T23:09:10.773Z,23.27
2019-03-03T23:12:06.262Z,23.13
2019-03-03T23:14:49.822Z,23.33
2019-03-03T23:17:50.262Z,20.37
2019-03-03T23:20:33.944Z,17.50
2019-03-03T23:23:34.339Z,19.27
2019-03-03T23:26:03.188Z,15.10
2019-03-03T23:28:31.785Z,17.63
2019-03-03T23:31:00.372Z,14.90
2019-03-03T23:33:29.129Z,16.83
2019-03-03T23:35:57.760Z,15.53
2019-03-03T23:38:26.471Z,16.03
2019-03-03T23:40:55.090Z,13.60
2019-03-03T23:43:23.650Z,14.90
2019-03-03T23:45:52.234Z,14.80
2019-03-03T23:48:20.911Z,17.20
2019-03-03T23:50:49.545Z,14.37
2019-03-03T23:53:18.133Z,18.90
2019-03-03T23:55:46.755Z,16.67
2019-03-03T23:58:15.382Z,14.93
